Flight Track Log - Related Links

Times and Time Zones

All times are in EDT time to prevent confusion due to time zone crossing. See the GJS3649 flight status page for this flight to view local times or setup timezone preferences in your user account.

Time Position Orientation Groundspeed Altitude Reporting Facility
EDT Latitude Longitude Course Direction KTS MPH feet Rate Location/Type
Sat 03:49:42 PM 41.9833 -87.8667 166° South 154 177 2,300  Level Chicago TRACON
Sat 03:50:42 PM 41.9333 -87.8333 154° Southeast 232 267 4,700 2,579 Climbing Chicago TRACON
Sat 03:51:43 PM 41.8667 -87.8500 191° South 251 289 7,500 2,392 Climbing Chicago TRACON
Sat 03:52:00 PM 41.8015 -87.4041 153° Southeast  Level Estimated
Sat 03:53:00 PM 41.7045 -87.4538 201° Southwest  Level FlightAware Approximate
Sat 03:53:15 PM 41.7747 -87.8414 176° South 263 303 10,800  Level Chicago Center
Sat 03:54:00 PM 41.6602 -87.3281 166° South  Level Estimated
Sat 03:54:16 PM 41.6936 -87.7828 152° Southeast 275 316 13,300  Level Chicago Center
Sat 03:55:00 PM 41.6142 -87.1986 166° South  Level Estimated
Sat 03:55:18 PM 41.6061 -87.7514 165° South 319 367 14,700  Level Chicago Center
Sat 03:56:20 PM 41.5131 -87.7181 165° South 339 390 16,700 1,854 Climbing Chicago Center
Sat 03:57:21 PM 41.4192 -87.6817 164° South 348 400 18,500 1,659 Climbing Chicago Center
Sat 03:58:23 PM 41.3214 -87.6456 164° South 356 410 20,100 1,500 Climbing Chicago Center
Sat 03:59:25 PM 41.2206 -87.6089 165° South 368 423 21,600 1,403 Climbing Chicago Center
Sat 04:00:27 PM 41.1175 -87.5714 165° South 379 436 23,000 1,512 Climbing Chicago Center
Sat 04:01:28 PM 41.0125 -87.5319 164° South 388 447 24,700 1,659 Climbing Chicago Center
Sat 04:02:30 PM 40.8872 -87.4872 165° South 390 449 26,400 1,500 Climbing Chicago Center
Sat 04:03:32 PM 40.7825 -87.4497 165° South 392 451 27,800 1,355 Climbing Chicago Center
Sat 04:04:34 PM 40.6767 -87.4114 165° South 394 453 29,200 1,355 Climbing Chicago Center
Sat 04:05:36 PM 40.5731 -87.3744 165° South 390 449 30,600 1,268 Climbing Chicago Center
Sat 04:06:37 PM 40.4694 -87.3375 165° South 388 447 31,800 1,268 Climbing Chicago Center
Sat 04:07:39 PM 40.3636 -87.2531 149° Southeast 388 447 33,200 1,258 Climbing Chicago Center
Sat 04:08:41 PM 40.2786 -87.1731 144° Southeast 381 438 34,400 1,065 Climbing Chicago Center
Sat 04:09:43 PM 40.1956 -87.0933 144° Southeast 374 430 35,400 968 Climbing Chicago Center
Sat 04:10:45 PM 40.1125 -87.0169 145° Southeast 370 426 36,400 873 Climbing Chicago Center
Sat 04:11:33 PM 40.0450 -86.9544 145° Southeast 367 422 37,000 606 Climbing Indianapolis Center
Sat 04:12:34 PM 39.9836 -86.8514 128° Southeast 365 420 37,500 488 Climbing Indianapolis Center
Sat 04:13:36 PM 39.9472 -86.7242 110° East 374 430 38,000 537 Climbing Indianapolis Center
Sat 04:14:37 PM 39.9122 -86.5994 110° East 370 426 38,600 443 Climbing Indianapolis Center
Sat 04:15:38 PM 39.8683 -86.4497 111° Southeast 370 426 38,900 195 Climbing Indianapolis Center
Sat 04:16:40 PM 39.8347 -86.3339 111° Southeast 371 427 39,000 49 Climbing Indianapolis Center
Sat 04:17:41 PM 39.7956 -86.2044 111° Southeast 379 436 39,000  Level Indianapolis Center
Sat 04:18:42 PM 39.7508 -86.0561 111° Southeast 388 447 39,000  Level Indianapolis Center
Sat 04:19:44 PM 39.7100 -85.9206 111° Southeast 400 460 39,000  Level Indianapolis Center
Sat 04:20:45 PM 39.6686 -85.7847 112° Southeast 406 467 39,000  Level Indianapolis Center
Sat 04:21:46 PM 39.6264 -85.6467 112° Southeast 412 474 39,000  Level Indianapolis Center
Sat 04:22:48 PM 39.5831 -85.5056 112° Southeast 420 483 39,000  Level Indianapolis Center
Sat 04:23:49 PM 39.5397 -85.3661 112° Southeast 419 482 39,000  Level Indianapolis Center
Sat 04:24:50 PM 39.4978 -85.2292 112° Southeast 412 474 39,000  Level Indianapolis Center
Sat 04:25:52 PM 39.4547 -85.0908 112° Southeast 415 478 39,000  Level Indianapolis Center
Sat 04:26:53 PM 39.4119 -84.9556 112° Southeast 410 472 39,000  Level Indianapolis Center
Sat 04:27:54 PM 39.3625 -84.8019 113° Southeast 406 467 39,000  Level Indianapolis Center
Sat 04:28:56 PM 39.3200 -84.6667 112° Southeast 405 466 39,000  Level Indianapolis Center
Sat 04:29:57 PM 39.2772 -84.5322 112° Southeast 403 464 39,000  Level Indianapolis Center
Sat 04:30:59 PM 39.2347 -84.4003 113° Southeast 398 458 39,000  Level Indianapolis Center
Sat 04:32:00 PM 39.1917 -84.2667 113° Southeast 399 459 39,000  Level Indianapolis Center
Sat 04:33:01 PM 39.1494 -84.1369 113° Southeast 393 452 39,000  Level Indianapolis Center
Sat 04:34:03 PM 39.1067 -84.0036 112° Southeast 398 458 39,000  Level Indianapolis Center
Sat 04:35:04 PM 39.0628 -83.8706 113° Southeast 399 459 39,000  Level Indianapolis Center
Sat 04:36:06 PM 39.0125 -83.7147 113° Southeast 401 461 39,000  Level Indianapolis Center
Sat 04:37:07 PM 38.9692 -83.5822 113° Southeast 401 461 39,000  Level Indianapolis Center
Sat 04:38:09 PM 38.9242 -83.4500 114° Southeast 401 461 39,000  Level Indianapolis Center
Sat 04:39:10 PM 38.8811 -83.3192 113° Southeast 397 457 39,000  Level Indianapolis Center
Sat 04:41:13 PM 38.7914 -83.0528 113° Southeast 399 459 39,000  Level Indianapolis Center
Sat 04:42:14 PM 38.7483 -82.9222 113° Southeast 398 458 39,000  Level Indianapolis Center
Sat 04:43:16 PM 38.7039 -82.7939 114° Southeast 397 457 39,000  Level Indianapolis Center
Sat 04:44:17 PM 38.6603 -82.6644 113° Southeast 396 456 39,000  Level Indianapolis Center
Sat 04:45:18 PM 38.6106 -82.5203 114° Southeast 402 463 39,000 -390 Level Indianapolis Center
Sat 04:46:20 PM 38.5706 -82.4033 114° Southeast 401 461 38,200 -878 Descending Indianapolis Center
Sat 04:47:21 PM 38.5169 -82.2481 114° Southeast 400 460 37,200 -829 Descending Indianapolis Center
Sat 04:48:23 PM 38.4733 -82.1214 114° Southeast 394 453 36,500 -732 Descending Indianapolis Center
Sat 04:49:24 PM 38.4278 -81.9947 115° Southeast 394 453 35,700 -787 Descending Indianapolis Center
Sat 04:50:25 PM 38.3831 -81.8656 114° Southeast 400 460 34,900 -780 Descending Indianapolis Center
Sat 04:51:27 PM 38.3439 -81.7339 111° Southeast 402 463 34,100 -780 Descending Indianapolis Center
Sat 04:52:28 PM 38.3217 -81.5900 101° East 416 479 33,300 -541 Descending Indianapolis Center
Sat 04:53:29 PM 38.2986 -81.4431 101° East 426 490 33,000 -146 Descending Indianapolis Center
Sat 04:54:31 PM 38.2694 -81.2650 102° East 432 497 33,000  Level Indianapolis Center
Sat 04:55:32 PM 38.2456 -81.1167 102° East 432 497 33,000  Level Indianapolis Center
Sat 04:56:13 PM 38.2278 -81.0186 103° East 433 498 33,000  Level Washington Center
Sat 04:57:14 PM 38.2067 -80.8822 101° East 433 498 33,000  Level Washington Center
Sat 04:58:14 PM 38.1819 -80.7350 102° East 433 498 33,000 -50 Level Washington Center
Sat 04:59:15 PM 38.1567 -80.5933 103° East 428 493 32,900 -248 Descending Washington Center
Sat 05:00:15 PM 38.1333 -80.4467 101° East 417 480 32,500 -1,068 Descending Washington Center
Sat 05:01:13 PM 38.1083 -80.2894 101° East 417 480 30,800 -1,373 Descending Washington Center
Sat 05:02:13 PM 38.0847 -80.1428 102° East 417 480 29,800 -893 Descending Washington Center
Sat 05:03:14 PM 38.0569 -79.9933 103° East 417 480 29,000 -1,041 Descending Washington Center
Sat 05:04:14 PM 38.0331 -79.8494 102° East 417 480 27,700 -992 Descending Washington Center
Sat 05:05:15 PM 38.0089 -79.7083 102° East 417 480 27,000 -353 Descending Washington Center
Sat 05:06:13 PM 37.9858 -79.5833 103° East 417 480 27,000  Level Washington Center
Sat 05:07:13 PM 37.9636 -79.4400 101° East 417 480 27,000  Level Washington Center
Sat 05:08:14 PM 37.9386 -79.3017 103° East 412 474 27,000  Level Washington Center
Sat 05:09:15 PM 37.9136 -79.1608 103° East 412 474 27,000 -252 Level Washington Center
Sat 05:10:13 PM 37.8803 -79.0225 107° East 412 474 26,500 -958 Descending Washington Center
Sat 05:11:14 PM 37.8364 -78.8708 110° East 419 482 25,100 -1,289 Descending Washington Center
Sat 05:12:14 PM 37.7981 -78.7428 111° Southeast 407 468 23,900 -1,190 Descending Washington Center
Sat 05:13:15 PM 37.7617 -78.6178 110° East 394 453 22,700 -1,190 Descending Washington Center
Sat 05:14:15 PM 37.7272 -78.4958 110° East 377 434 21,500 -864 Descending Washington Center
Sat 05:15:13 PM 37.6925 -78.3736 110° East 372 428 21,000 -254 Descending Washington Center
Sat 05:16:13 PM 37.6597 -78.2622 110° East 372 428 21,000  Level Washington Center
Sat 05:17:13 PM 37.6225 -78.1456 112° Southeast 372 428 21,000 -50 Level Washington Center
Sat 05:18:14 PM 37.5856 -78.0264 111° Southeast 367 422 20,900 -541 Descending Washington Center
Sat 05:19:15 PM 37.5522 -77.9100 110° East 367 422 19,900 -1,008 Descending Washington Center
Sat 05:20:13 PM 37.5253 -77.7942 106° East 356 410 18,900 -1,017 Descending Washington Center
Sat 05:21:13 PM 37.5169 -77.6708 95° East 344 396 17,900 -893 Descending Washington Center
Sat 05:22:14 PM 37.5089 -77.5422 94° East 349 402 17,100 -885 Descending Washington Center
Sat 05:23:15 PM 37.5003 -77.4217 95° East 349 402 16,100 -793 Descending Washington Center
Sat 05:24:15 PM 37.4914 -77.3061 96° East 349 402 15,500 -850 Descending Washington Center
Sat 05:25:15 PM 37.4828 -77.1883 95° East 349 402 14,400 -763 Descending Washington Center
Sat 05:26:13 PM 37.4739 -77.0703 95° East 349 402 14,000 -214 Descending Washington Center
Sat 05:27:07 PM 37.4647 -76.9578 96° East 345 397 14,000  Level Washington Center
Sat 05:28:15 PM 37.4578 -76.8344 94° East 342 394 14,000  Level Washington Center
Sat 05:29:13 PM 37.4483 -76.7194 96° East 337 388 14,000  Level Washington Center
Sat 05:29:31 PM 37.4444 -76.6828 98° East 325 374 14,000  Level Washington Center
Sat 05:30:13 PM 37.4389 -76.6014 95° East 332 382 14,000  Level Washington Center
Sat 05:30:31 PM 37.4331 -76.5672 102° East 332 382 14,000  Level Washington Center
Sat 05:31:13 PM 37.4275 -76.4889 95° East 332 382 14,000  Level Washington Center
Sat 05:31:37 PM 37.4194 -76.4339 100° East 334 384 14,000 -197 Level Washington Center
Sat 05:32:14 PM 37.3925 -76.3864 126° Southeast 332 382 13,800 -1,091 Descending Washington Center
Sat 05:32:32 PM 37.3636 -76.3706 156° South 301 346 13,000 -1,975 Descending Washington Center
Sat 05:33:33 PM 37.2803 -76.3383 163° South 295 339 11,200 -1,604 Descending Washington Center
Sat 05:34:13 PM 37.2386 -76.3197 160° South 272 313 10,300 -1,672 Descending Washington Center
Sat 05:34:34 PM 37.2033 -76.3142 173° South 283 326 9,500 -1,700 Descending Washington Center
Sat 05:35:13 PM 37.1636 -76.2956 160° South 277 319 8,600 -1,612 Descending Washington Center
Sat 05:35:41 PM 37.1242 -76.2875 171° South 273 314 7,700 -1,672 Descending Washington Center
Sat 05:36:14 PM 37.0908 -76.2714 159° South 277 319 6,900 -1,558 Descending Washington Center
Sat 05:37:25 PM 37.0014 -76.2447 167° South 262 302 5,000 -912 Descending Washington Center
Sat 05:38:19 PM 36.9469 -76.2572 190° South 228 262 5,000 -767 Level Washington Center
Sat 05:39:38 PM 36.8839 -76.3294 223° Southwest 236 272 3,300 -828 Descending Washington Center
Sat 05:40:44 PM 36.8294 -76.3886 221° Southwest 230 265 3,000 -250 Descending Washington Center
Sat 05:41:38 PM 36.7836 -76.3828 174° South 177 204 2,800 -474 Descending Washington Center
Sat 05:42:38 PM 36.7714 -76.3361 108° East 150 173 2,100 -408 Descending Washington Center
Sat 05:43:21 PM 36.7881 -76.3050 56° Northeast 166 191 2,100 -286 Level Washington Center
Sat 05:44:23 PM 36.8258 -76.2717 35° Northeast 144 166 1,600 -564 Descending Washington Center
Sat 05:45:18 PM 36.8489 -76.2486 39° Northeast 106 122 1,000 -655 Descending Washington Center

Login

Don't have an account? Register now (free) for customized features, flight alerts, and more!